sensor_id;sensor_type;location;lat;lon;timestamp;pressure;altitude;pressure_sealevel;temperature;humidity
18988;BME280;5494;51.796;10.952;2023-03-12T00:01:14;98543.31;;;-0.45;77.41
18988;BME280;5494;51.796;10.952;2023-03-12T00:03:42;98543.41;;;-0.51;77.56
18988;BME280;5494;51.796;10.952;2023-03-12T00:06:11;98549.28;;;-0.47;78.19
18988;BME280;5494;51.796;10.952;2023-03-12T00:08:39;98541.63;;;-0.47;77.38
18988;BME280;5494;51.796;10.952;2023-03-12T00:11:11;98545.13;;;-0.54;78.77
18988;BME280;5494;51.796;10.952;2023-03-12T00:13:40;98550.22;;;-0.51;77.74
18988;BME280;5494;51.796;10.952;2023-03-12T00:16:11;98555.22;;;-0.45;76.49
18988;BME280;5494;51.796;10.952;2023-03-12T00:18:41;98543.34;;;-0.48;77.73
18988;BME280;5494;51.796;10.952;2023-03-12T00:21:09;98551.94;;;-0.53;78.00
18988;BME280;5494;51.796;10.952;2023-03-12T00:23:38;98549.47;;;-0.59;78.33
18988;BME280;5494;51.796;10.952;2023-03-12T00:26:10;98547.69;;;-0.54;79.23
18988;BME280;5494;51.796;10.952;2023-03-12T00:28:39;98550.38;;;-0.63;79.08
18988;BME280;5494;51.796;10.952;2023-03-12T00:31:15;98565.59;;;-0.56;78.75
18988;BME280;5494;51.796;10.952;2023-03-12T00:33:44;98556.94;;;-0.46;77.68
18988;BME280;5494;51.796;10.952;2023-03-12T00:36:12;98559.56;;;-0.50;77.82
18988;BME280;5494;51.796;10.952;2023-03-12T00:38:40;98564.75;;;-0.56;78.07
18988;BME280;5494;51.796;10.952;2023-03-12T00:41:09;98570.63;;;-0.51;77.81
18988;BME280;5494;51.796;10.952;2023-03-12T00:43:37;98557.03;;;-0.52;77.39
18988;BME280;5494;51.796;10.952;2023-03-12T00:46:06;98553.59;;;-0.49;77.01
18988;BME280;5494;51.796;10.952;2023-03-12T00:48:34;98561.28;;;-0.54;77.15
18988;BME280;5494;51.796;10.952;2023-03-12T00:51:03;98557.75;;;-0.42;76.37
18988;BME280;5494;51.796;10.952;2023-03-12T00:53:31;98553.53;;;-0.46;76.00
18988;BME280;5494;51.796;10.952;2023-03-12T00:55:59;98552.78;;;-0.51;76.29
18988;BME280;5494;51.796;10.952;2023-03-12T00:58:29;98557.03;;;-0.52;76.71
18988;BME280;5494;51.796;10.952;2023-03-12T01:00:57;98556.19;;;-0.54;76.58
18988;BME280;5494;51.796;10.952;2023-03-12T01:03:25;98557.78;;;-0.45;77.23
18988;BME280;5494;51.796;10.952;2023-03-12T01:05:53;98556.16;;;-0.49;77.18
18988;BME280;5494;51.796;10.952;2023-03-12T01:08:22;98554.38;;;-0.44;78.29
18988;BME280;5494;51.796;10.952;2023-03-12T01:10:51;98542.50;;;-0.48;78.57
18988;BME280;5494;51.796;10.952;2023-03-12T01:13:20;98545.84;;;-0.42;78.66
18988;BME280;5494;51.796;10.952;2023-03-12T01:15:49;98539.91;;;-0.45;79.61
18988;BME280;5494;51.796;10.952;2023-03-12T01:18:17;98549.28;;;-0.47;80.06
18988;BME280;5494;51.796;10.952;2023-03-12T01:20:46;98534.03;;;-0.50;80.52
18988;BME280;5494;51.796;10.952;2023-03-12T01:23:14;98534.97;;;-0.56;81.05
18988;BME280;5494;51.796;10.952;2023-03-12T01:25:42;98539.31;;;-0.62;81.32
18988;BME280;5494;51.796;10.952;2023-03-12T01:28:10;98534.25;;;-0.65;82.20
18988;BME280;5494;51.796;10.952;2023-03-12T01:30:38;98541.91;;;-0.68;82.75
18988;BME280;5494;51.796;10.952;2023-03-12T01:33:07;98532.53;;;-0.65;83.46
18988;BME280;5494;51.796;10.952;2023-03-12T01:35:37;98535.13;;;-0.68;83.48
18988;BME280;5494;51.796;10.952;2023-03-12T01:38:07;98537.72;;;-0.71;83.65
18988;BME280;5494;51.796;10.952;2023-03-12T01:40:36;98540.28;;;-0.72;83.85
18988;BME280;5494;51.796;10.952;2023-03-12T01:43:27;98541.13;;;-0.70;84.76
18988;BME280;5494;51.796;10.952;2023-03-12T01:48:54;98533.41;;;-0.67;85.24
18988;BME280;5494;51.796;10.952;2023-03-12T01:51:29;98536.88;;;-0.71;85.85
18988;BME280;5494;51.796;10.952;2023-03-12T01:54:04;98535.19;;;-0.74;85.86
18988;BME280;5494;51.796;10.952;2023-03-12T01:56:35;98540.25;;;-0.69;85.67
18988;BME280;5494;51.796;10.952;2023-03-12T01:59:11;98530.84;;;-0.67;85.94
18988;BME280;5494;51.796;10.952;2023-03-12T02:01:42;98529.13;;;-0.65;85.92
18988;BME280;5494;51.796;10.952;2023-03-12T02:04:15;98524.06;;;-0.68;86.04
18988;BME280;5494;51.796;10.952;2023-03-12T02:06:51;98519.78;;;-0.66;85.41
18988;BME280;5494;51.796;10.952;2023-03-12T02:09:21;98521.56;;;-0.71;85.59
18988;BME280;5494;51.796;10.952;2023-03-12T02:11:49;98520.66;;;-0.69;85.60
18988;BME280;5494;51.796;10.952;2023-03-12T02:14:19;98515.44;;;-0.58;85.50
18988;BME280;5494;51.796;10.952;2023-03-12T02:16:47;98526.50;;;-0.59;84.70
18988;BME280;5494;51.796;10.952;2023-03-12T02:19:28;98522.13;;;-0.51;83.75
18988;BME280;5494;51.796;10.952;2023-03-12T02:21:59;98523.78;;;-0.47;83.21
18988;BME280;5494;51.796;10.952;2023-03-12T02:24:32;98521.22;;;-0.47;83.18
18988;BME280;5494;51.796;10.952;2023-03-12T02:27:05;98524.50;;;-0.39;82.96
18988;BME280;5494;51.796;10.952;2023-03-12T02:29:37;98527.94;;;-0.40;82.91
18988;BME280;5494;51.796;10.952;2023-03-12T02:32:16;98527.97;;;-0.43;82.71
18988;BME280;5494;51.796;10.952;2023-03-12T02:34:44;98533.88;;;-0.41;83.19
18988;BME280;5494;51.796;10.952;2023-03-12T02:37:13;98533.09;;;-0.43;83.21
18988;BME280;5494;51.796;10.952;2023-03-12T02:39:54;98532.25;;;-0.44;83.01
18988;BME280;5494;51.796;10.952;2023-03-12T02:42:25;98525.53;;;-0.51;83.53
18988;BME280;5494;51.796;10.952;2023-03-12T02:44:53;98528.97;;;-0.53;83.93
18988;BME280;5494;51.796;10.952;2023-03-12T02:47:22;98530.75;;;-0.58;84.51
18988;BME280;5494;51.796;10.952;2023-03-12T02:49:51;98523.19;;;-0.66;84.98
18988;BME280;5494;51.796;10.952;2023-03-12T02:52:22;98529.16;;;-0.67;84.61
18988;BME280;5494;51.796;10.952;2023-03-12T02:54:50;98525.75;;;-0.66;84.88
18988;BME280;5494;51.796;10.952;2023-03-12T02:57:18;98532.53;;;-0.65;84.31
18988;BME280;5494;51.796;10.952;2023-03-12T02:59:50;98528.31;;;-0.67;85.18
18988;BME280;5494;51.796;10.952;2023-03-12T03:02:19;98531.03;;;-0.80;84.78
18988;BME280;5494;51.796;10.952;2023-03-12T03:04:47;98542.91;;;-0.78;85.74
18988;BME280;5494;51.796;10.952;2023-03-12T03:07:15;98535.28;;;-0.82;85.56
18988;BME280;5494;51.796;10.952;2023-03-12T03:09:43;98535.38;;;-0.88;86.29
18988;BME280;5494;51.796;10.952;2023-03-12T03:12:11;98539.72;;;-0.96;86.99
18988;BME280;5494;51.796;10.952;2023-03-12T03:14:39;98539.78;;;-0.99;87.38
18988;BME280;5494;51.796;10.952;2023-03-12T03:17:09;98541.47;;;-1.01;87.93
18988;BME280;5494;51.796;10.952;2023-03-12T03:19:37;98539.78;;;-1.02;87.15
18988;BME280;5494;51.796;10.952;2023-03-12T03:22:05;98538.09;;;-1.03;87.77
18988;BME280;5494;51.796;10.952;2023-03-12T03:24:33;98544.03;;;-1.01;87.33
18988;BME280;5494;51.796;10.952;2023-03-12T03:27:01;98533.78;;;-0.96;87.06
18988;BME280;5494;51.796;10.952;2023-03-12T03:29:30;98533.84;;;-1.01;87.38
18988;BME280;5494;51.796;10.952;2023-03-12T03:31:59;98536.28;;;-0.92;86.21
18988;BME280;5494;51.796;10.952;2023-03-12T03:34:28;98536.31;;;-0.96;86.58
18988;BME280;5494;51.796;10.952;2023-03-12T03:36:57;98538.03;;;-0.97;87.16
18988;BME280;5494;51.796;10.952;2023-03-12T03:39:27;98539.69;;;-0.93;86.42
18988;BME280;5494;51.796;10.952;2023-03-12T03:41:55;98526.88;;;-0.90;85.59
18988;BME280;5494;51.796;10.952;2023-03-12T03:44:26;98531.22;;;-0.96;86.96
18988;BME280;5494;51.796;10.952;2023-03-12T03:46:54;98535.44;;;-0.91;86.56
18988;BME280;5494;51.796;10.952;2023-03-12T03:49:22;98527.78;;;-0.91;86.49
18988;BME280;5494;51.796;10.952;2023-03-12T03:51:52;98530.34;;;-0.94;86.47
18988;BME280;5494;51.796;10.952;2023-03-12T03:54:27;98535.34;;;-0.83;85.95
18988;BME280;5494;51.796;10.952;2023-03-12T03:56:57;98537.06;;;-0.85;85.65
18988;BME280;5494;51.796;10.952;2023-03-12T03:59:25;98541.25;;;-0.83;84.96
18988;BME280;5494;51.796;10.952;2023-03-12T04:01:53;98542.94;;;-0.82;85.09
18988;BME280;5494;51.796;10.952;2023-03-12T04:04:21;98548.09;;;-0.85;85.37
18988;BME280;5494;51.796;10.952;2023-03-12T04:06:49;98546.34;;;-0.83;85.75
18988;BME280;5494;51.796;10.952;2023-03-12T04:09:19;98543.03;;;-0.88;85.99
18988;BME280;5494;51.796;10.952;2023-03-12T04:11:47;98546.41;;;-0.87;85.69
18988;BME280;5494;51.796;10.952;2023-03-12T04:14:15;98541.31;;;-0.86;85.74
18988;BME280;5494;51.796;10.952;2023-03-12T04:16:45;98542.94;;;-0.82;85.50
18988;BME280;5494;51.796;10.952;2023-03-12T04:19:13;98544.69;;;-0.84;85.62
18988;BME280;5494;51.796;10.952;2023-03-12T04:21:41;98541.25;;;-0.83;85.12
18988;BME280;5494;51.796;10.952;2023-03-12T04:24:15;98539.44;;;-0.74;85.01
18988;BME280;5494;51.796;10.952;2023-03-12T04:26:45;98541.13;;;-0.70;84.79
18988;BME280;5494;51.796;10.952;2023-03-12T04:29:15;98523.97;;;-0.61;84.21
18988;BME280;5494;51.796;10.952;2023-03-12T04:31:43;98529.81;;;-0.54;83.33
18988;BME280;5494;51.796;10.952;2023-03-12T04:34:11;98527.28;;;-0.54;83.05
18988;BME280;5494;51.796;10.952;2023-03-12T04:36:42;98529.88;;;-0.56;83.11
18988;BME280;5494;51.796;10.952;2023-03-12T04:39:11;98529.06;;;-0.59;83.30
18988;BME280;5494;51.796;10.952;2023-03-12T04:41:39;98521.47;;;-0.62;83.85
18988;BME280;5494;51.796;10.952;2023-03-12T04:44:12;98524.88;;;-0.63;83.67
18988;BME280;5494;51.796;10.952;2023-03-12T04:46:41;98522.34;;;-0.66;83.64
18988;BME280;5494;51.796;10.952;2023-03-12T04:49:13;98523.97;;;-0.61;83.35
18988;BME280;5494;51.796;10.952;2023-03-12T04:51:41;98512.94;;;-0.63;83.75
18988;BME280;5494;51.796;10.952;2023-03-12T04:54:10;98520.63;;;-0.64;83.31
18988;BME280;5494;51.796;10.952;2023-03-12T04:56:39;98523.19;;;-0.64;83.29
18988;BME280;5494;51.796;10.952;2023-03-12T04:59:07;98523.19;;;-0.67;83.96
18988;BME280;5494;51.796;10.952;2023-03-12T05:01:37;98524.13;;;-0.71;84.27
18988;BME280;5494;51.796;10.952;2023-03-12T05:04:11;98529.16;;;-0.68;83.66
18988;BME280;5494;51.796;10.952;2023-03-12T05:06:39;98526.63;;;-0.68;84.23
18988;BME280;5494;51.796;10.952;2023-03-12T05:09:07;98530.84;;;-0.66;84.59
18988;BME280;5494;51.796;10.952;2023-03-12T05:11:36;98524.06;;;-0.68;84.06
18988;BME280;5494;51.796;10.952;2023-03-12T05:14:06;98526.66;;;-0.71;84.92
18988;BME280;5494;51.796;10.952;2023-03-12T05:16:34;98532.56;;;-0.68;83.62
18988;BME280;5494;51.796;10.952;2023-03-12T05:19:05;98551.28;;;-0.67;83.58
18988;BME280;5494;51.796;10.952;2023-03-12T05:21:33;98541.97;;;-0.70;84.91
18988;BME280;5494;51.796;10.952;2023-03-12T05:24:01;98553.03;;;-0.69;84.34
18988;BME280;5494;51.796;10.952;2023-03-12T05:26:32;98540.19;;;-0.63;83.80
18988;BME280;5494;51.796;10.952;2023-03-12T05:29:08;98543.56;;;-0.63;83.55
18988;BME280;5494;51.796;10.952;2023-03-12T05:31:37;98534.16;;;-0.59;83.52
18988;BME280;5494;51.796;10.952;2023-03-12T05:34:10;98531.53;;;-0.55;83.43
18988;BME280;5494;51.796;10.952;2023-03-12T05:36:39;98540.00;;;-0.50;83.58
18988;BME280;5494;51.796;10.952;2023-03-12T05:39:07;98542.44;;;-0.42;83.50
18988;BME280;5494;51.796;10.952;2023-03-12T05:41:35;98539.75;;;-0.34;82.61
18988;BME280;5494;51.796;10.952;2023-03-12T05:44:11;98535.28;;;-0.20;81.83
18988;BME280;5494;51.796;10.952;2023-03-12T05:46:44;98528.44;;;-0.17;82.00
18988;BME280;5494;51.796;10.952;2023-03-12T05:49:13;98535.94;;;-0.06;81.63
18988;BME280;5494;51.796;10.952;2023-03-12T05:51:41;98533.00;;;0.17;80.64
18988;BME280;5494;51.796;10.952;2023-03-12T05:54:10;98536.91;;;0.37;79.10
18988;BME280;5494;51.796;10.952;2023-03-12T05:56:41;98534.84;;;0.59;77.96
18988;BME280;5494;51.796;10.952;2023-03-12T05:59:09;98533.72;;;0.72;76.42
18988;BME280;5494;51.796;10.952;2023-03-12T06:01:40;98536.03;;;0.86;75.24
18988;BME280;5494;51.796;10.952;2023-03-12T06:04:08;98539.75;;;1.13;73.51
18988;BME280;5494;51.796;10.952;2023-03-12T06:06:38;98526.59;;;1.31;72.56
18988;BME280;5494;51.796;10.952;2023-03-12T06:09:06;98518.19;;;1.25;72.03
18988;BME280;5494;51.796;10.952;2023-03-12T06:11:34;98523.22;;;1.29;71.86
18988;BME280;5494;51.796;10.952;2023-03-12T06:14:03;98516.38;;;1.31;71.15
18988;BME280;5494;51.796;10.952;2023-03-12T06:16:33;98518.94;;;1.30;70.48
18988;BME280;5494;51.796;10.952;2023-03-12T06:19:03;98517.13;;;1.35;70.07
18988;BME280;5494;51.796;10.952;2023-03-12T06:21:34;98511.97;;;1.36;70.04
18988;BME280;5494;51.796;10.952;2023-03-12T06:24:07;98516.88;;;1.45;69.45
18988;BME280;5494;51.796;10.952;2023-03-12T06:26:48;98506.84;;;1.36;70.40
18988;BME280;5494;51.796;10.952;2023-03-12T06:29:16;98508.63;;;1.33;70.11
18988;BME280;5494;51.796;10.952;2023-03-12T06:31:44;98512.00;;;1.35;69.70
18988;BME280;5494;51.796;10.952;2023-03-12T06:34:14;98511.19;;;1.33;69.50
18988;BME280;5494;51.796;10.952;2023-03-12T06:36:42;98508.56;;;1.37;69.63
18988;BME280;5494;51.796;10.952;2023-03-12T06:39:11;98511.97;;;1.38;69.38
18988;BME280;5494;51.796;10.952;2023-03-12T06:41:39;98501.66;;;1.39;69.94
18988;BME280;5494;51.796;10.952;2023-03-12T06:44:08;98512.69;;;1.43;69.87
18988;BME280;5494;51.796;10.952;2023-03-12T06:46:36;98500.44;;;1.55;69.98
18988;BME280;5494;51.796;10.952;2023-03-12T06:49:04;98497.88;;;1.55;69.84
18988;BME280;5494;51.796;10.952;2023-03-12T06:51:32;98507.25;;;1.56;69.56
18988;BME280;5494;51.796;10.952;2023-03-12T06:54:00;98503.75;;;1.61;69.50
18988;BME280;5494;51.796;10.952;2023-03-12T06:56:30;98493.34;;;1.67;70.30
18988;BME280;5494;51.796;10.952;2023-03-12T06:59:01;98496.75;;;1.67;69.48
18988;BME280;5494;51.796;10.952;2023-03-12T07:01:29;98499.06;;;1.79;70.21
18988;BME280;5494;51.796;10.952;2023-03-12T07:03:57;98496.50;;;1.79;69.36
18988;BME280;5494;51.796;10.952;2023-03-12T07:06:25;98501.31;;;1.91;68.42
18988;BME280;5494;51.796;10.952;2023-03-12T07:08:53;98498.66;;;1.96;68.32
18988;BME280;5494;51.796;10.952;2023-03-12T07:11:21;98505.25;;;2.06;67.28
18988;BME280;5494;51.796;10.952;2023-03-12T07:13:50;98501.88;;;2.04;67.47
18988;BME280;5494;51.796;10.952;2023-03-12T07:16:18;98504.72;;;2.27;68.09
18988;BME280;5494;51.796;10.952;2023-03-12T07:18:46;98510.25;;;2.45;65.12
18988;BME280;5494;51.796;10.952;2023-03-12T07:21:15;98506.63;;;2.84;65.52
18988;BME280;5494;51.796;10.952;2023-03-12T07:23:48;98503.63;;;2.99;63.66
18988;BME280;5494;51.796;10.952;2023-03-12T07:26:16;98496.03;;;2.96;63.57
18988;BME280;5494;51.796;10.952;2023-03-12T07:28:45;98490.44;;;3.11;64.08
18988;BME280;5494;51.796;10.952;2023-03-12T07:31:14;98484.88;;;3.27;63.26
18988;BME280;5494;51.796;10.952;2023-03-12T07:33:42;98482.22;;;3.30;62.24
18988;BME280;5494;51.796;10.952;2023-03-12T07:36:10;98481.22;;;3.34;62.47
18988;BME280;5494;51.796;10.952;2023-03-12T07:38:38;98479.28;;;3.42;61.91
18988;BME280;5494;51.796;10.952;2023-03-12T07:41:07;98465.94;;;3.31;62.46
18988;BME280;5494;51.796;10.952;2023-03-12T07:43:35;98467.13;;;3.47;62.42
18988;BME280;5494;51.796;10.952;2023-03-12T07:46:03;98468.06;;;3.44;63.26
18988;BME280;5494;51.796;10.952;2023-03-12T07:48:32;98463.72;;;3.46;62.25
18988;BME280;5494;51.796;10.952;2023-03-12T07:51:01;98469.19;;;3.36;62.51
18988;BME280;5494;51.796;10.952;2023-03-12T07:53:28;98457.22;;;3.35;61.84
18988;BME280;5494;51.796;10.952;2023-03-12T07:55:56;98453.28;;;3.25;62.28
18988;BME280;5494;51.796;10.952;2023-03-12T07:58:25;98455.06;;;3.21;63.21
18988;BME280;5494;51.796;10.952;2023-03-12T08:00:54;98456.16;;;3.42;63.79
18988;BME280;5494;51.796;10.952;2023-03-12T08:03:22;98451.81;;;3.44;63.04
18988;BME280;5494;51.796;10.952;2023-03-12T08:05:58;98450.81;;;3.48;61.92
18988;BME280;5494;51.796;10.952;2023-03-12T08:08:27;98453.97;;;3.58;59.92
18988;BME280;5494;51.796;10.952;2023-03-12T08:10:56;98462.63;;;3.53;59.98
18988;BME280;5494;51.796;10.952;2023-03-12T08:13:24;98459.16;;;3.82;60.75
18988;BME280;5494;51.796;10.952;2023-03-12T08:15:53;98456.69;;;4.06;58.65
18988;BME280;5494;51.796;10.952;2023-03-12T08:18:21;98460.31;;;4.00;58.12
18988;BME280;5494;51.796;10.952;2023-03-12T08:20:51;98452.41;;;4.06;58.19
18988;BME280;5494;51.796;10.952;2023-03-12T08:23:22;98450.72;;;4.05;58.03
18988;BME280;5494;51.796;10.952;2023-03-12T08:25:51;98461.63;;;4.12;56.96
18988;BME280;5494;51.796;10.952;2023-03-12T08:28:21;98458.59;;;4.25;56.33
18988;BME280;5494;51.796;10.952;2023-03-12T08:30:53;98447.41;;;4.26;57.61
18988;BME280;5494;51.796;10.952;2023-03-12T08:33:22;98452.41;;;4.56;58.09
18988;BME280;5494;51.796;10.952;2023-03-12T08:35:50;98453.25;;;4.80;56.14
18988;BME280;5494;51.796;10.952;2023-03-12T08:38:20;98446.06;;;4.89;54.31
18988;BME280;5494;51.796;10.952;2023-03-12T08:40:54;98439.72;;;4.74;53.98
18988;BME280;5494;51.796;10.952;2023-03-12T08:43:23;98434.56;;;4.74;55.11
18988;BME280;5494;51.796;10.952;2023-03-12T08:45:55;98436.81;;;4.84;55.84
18988;BME280;5494;51.796;10.952;2023-03-12T08:48:23;98444.63;;;4.81;54.34
18988;BME280;5494;51.796;10.952;2023-03-12T08:50:54;98438.69;;;4.79;55.10
18988;BME280;5494;51.796;10.952;2023-03-12T08:53:25;98445.22;;;4.89;55.29
18988;BME280;5494;51.796;10.952;2023-03-12T08:55:55;98441.00;;;4.86;56.24
18988;BME280;5494;51.796;10.952;2023-03-12T08:58:24;98442.75;;;5.09;54.83
18988;BME280;5494;51.796;10.952;2023-03-12T09:00:54;98433.03;;;5.15;55.35
18988;BME280;5494;51.796;10.952;2023-03-12T09:03:22;98425.13;;;5.20;55.69
18988;BME280;5494;51.796;10.952;2023-03-12T09:06:05;98427.19;;;5.55;54.30
18988;BME280;5494;51.796;10.952;2023-03-12T09:08:36;98436.41;;;5.39;54.13
18988;BME280;5494;51.796;10.952;2023-03-12T09:11:05;98426.38;;;5.10;53.29
18988;BME280;5494;51.796;10.952;2023-03-12T09:13:34;98416.03;;;4.88;52.85
18988;BME280;5494;51.796;10.952;2023-03-12T09:16:22;98412.63;;;4.88;54.15
18988;BME280;5494;51.796;10.952;2023-03-12T09:18:51;98412.28;;;4.73;55.15
18988;BME280;5494;51.796;10.952;2023-03-12T09:21:20;98414.91;;;4.72;55.39
18988;BME280;5494;51.796;10.952;2023-03-12T09:23:49;98418.34;;;4.72;54.10
18988;BME280;5494;51.796;10.952;2023-03-12T09:26:17;98415.13;;;4.66;54.27
18988;BME280;5494;51.796;10.952;2023-03-12T09:28:45;98403.06;;;4.68;54.38
18988;BME280;5494;51.796;10.952;2023-03-12T09:31:13;98420.91;;;4.72;55.01
18988;BME280;5494;51.796;10.952;2023-03-12T09:33:41;98415.91;;;4.91;53.46
18988;BME280;5494;51.796;10.952;2023-03-12T09:36:09;98411.56;;;4.93;53.73
18988;BME280;5494;51.796;10.952;2023-03-12T09:38:37;98415.31;;;4.85;54.06
18988;BME280;5494;51.796;10.952;2023-03-12T09:41:18;98413.91;;;4.99;53.99
18988;BME280;5494;51.796;10.952;2023-03-12T09:43:52;98414.69;;;4.78;53.61
18988;BME280;5494;51.796;10.952;2023-03-12T09:46:27;98414.53;;;4.83;54.49
18988;BME280;5494;51.796;10.952;2023-03-12T09:49:03;98409.81;;;4.94;54.87
18988;BME280;5494;51.796;10.952;2023-03-12T09:51:37;98409.66;;;5.20;55.58
18988;BME280;5494;51.796;10.952;2023-03-12T09:54:21;98403.09;;;5.35;54.20
18988;BME280;5494;51.796;10.952;2023-03-12T09:56:54;98393.09;;;5.49;53.05
18988;BME280;5494;51.796;10.952;2023-03-12T09:59:24;98390.31;;;5.53;52.25
18988;BME280;5494;51.796;10.952;2023-03-12T10:01:58;98401.03;;;5.65;53.05
18988;BME280;5494;51.796;10.952;2023-03-12T10:04:47;98394.22;;;5.64;52.96
18988;BME280;5494;51.796;10.952;2023-03-12T10:07:31;98397.22;;;5.53;53.88
18988;BME280;5494;51.796;10.952;2023-03-12T10:13:13;98408.19;;;5.36;53.86
18988;BME280;5494;51.796;10.952;2023-03-12T10:16:00;98401.28;;;5.15;53.79
18988;BME280;5494;51.796;10.952;2023-03-12T10:18:53;98393.56;;;5.15;54.56
18988;BME280;5494;51.796;10.952;2023-03-12T10:21:30;98403.00;;;4.93;54.98
18988;BME280;5494;51.796;10.952;2023-03-12T10:24:19;98407.69;;;4.58;55.07
18988;BME280;5494;51.796;10.952;2023-03-12T10:26:54;98409.78;;;4.49;56.13
18988;BME280;5494;51.796;10.952;2023-03-12T10:29:28;98425.41;;;4.43;56.49
18988;BME280;5494;51.796;10.952;2023-03-12T10:32:01;98434.97;;;4.39;56.89
18988;BME280;5494;51.796;10.952;2023-03-12T10:34:33;98422.91;;;4.41;57.97
18988;BME280;5494;51.796;10.952;2023-03-12T10:37:16;98424.16;;;4.54;57.77
18988;BME280;5494;51.796;10.952;2023-03-12T10:39:46;98410.44;;;4.54;57.97
18988;BME280;5494;51.796;10.952;2023-03-12T10:42:18;98412.47;;;4.44;59.18
18988;BME280;5494;51.796;10.952;2023-03-12T10:44:51;98399.41;;;4.73;59.29
18988;BME280;5494;51.796;10.952;2023-03-12T10:47:35;98388.09;;;4.78;59.88
18988;BME280;5494;51.796;10.952;2023-03-12T10:50:17;98390.25;;;4.90;60.38
18988;BME280;5494;51.796;10.952;2023-03-12T10:52:51;98388.00;;;5.04;60.83
18988;BME280;5494;51.796;10.952;2023-03-12T10:55:24;98386.13;;;5.29;62.00
18988;BME280;5494;51.796;10.952;2023-03-12T10:57:53;98381.22;;;5.45;60.64
18988;BME280;5494;51.796;10.952;2023-03-12T11:00:25;98382.09;;;5.66;60.18
18988;BME280;5494;51.796;10.952;2023-03-12T11:02:59;98369.63;;;5.55;61.88
18988;BME280;5494;51.796;10.952;2023-03-12T11:05:33;98371.13;;;5.81;58.39
18988;BME280;5494;51.796;10.952;2023-03-12T11:08:11;98350.97;;;5.70;58.67
18988;BME280;5494;51.796;10.952;2023-03-12T11:10:46;98351.00;;;5.48;58.44
18988;BME280;5494;51.796;10.952;2023-03-12T11:13:28;98360.66;;;5.22;61.75
18988;BME280;5494;51.796;10.952;2023-03-12T11:16:00;98366.13;;;5.36;63.68
18988;BME280;5494;51.796;10.952;2023-03-12T11:18:34;98353.28;;;5.34;62.78
18988;BME280;5494;51.796;10.952;2023-03-12T11:21:17;98339.22;;;5.21;64.47
18988;BME280;5494;51.796;10.952;2023-03-12T11:24:08;98334.50;;;5.32;64.52
18988;BME280;5494;51.796;10.952;2023-03-12T11:26:46;98325.53;;;5.19;63.97
18988;BME280;5494;51.796;10.952;2023-03-12T11:29:25;98324.34;;;5.06;65.76
18988;BME280;5494;51.796;10.952;2023-03-12T11:32:05;98315.81;;;4.84;66.23
18988;BME280;5494;51.796;10.952;2023-03-12T11:34:39;98306.41;;;4.83;68.30
18988;BME280;5494;51.796;10.952;2023-03-12T11:37:14;98308.16;;;4.59;69.75
18988;BME280;5494;51.796;10.952;2023-03-12T11:40:04;98299.22;;;4.46;72.30
18988;BME280;5494;51.796;10.952;2023-03-12T11:43:03;98299.50;;;4.38;74.21
18988;BME280;5494;51.796;10.952;2023-03-12T11:45:46;98311.09;;;4.26;77.71
18988;BME280;5494;51.796;10.952;2023-03-12T11:48:24;98299.44;;;4.16;79.31
18988;BME280;5494;51.796;10.952;2023-03-12T11:51:20;98296.59;;;4.24;79.39
18988;BME280;5494;51.796;10.952;2023-03-12T11:54:20;98285.59;;;4.20;80.50
18988;BME280;5494;51.796;10.952;2023-03-12T11:56:53;98279.59;;;4.20;81.39
18988;BME280;5494;51.796;10.952;2023-03-12T11:59:38;98280.22;;;4.26;82.11
18988;BME280;5494;51.796;10.952;2023-03-12T12:02:25;98265.56;;;4.28;83.69
18988;BME280;5494;51.796;10.952;2023-03-12T12:05:20;98267.13;;;4.32;84.13
18988;BME280;5494;51.796;10.952;2023-03-12T12:08:27;98273.44;;;4.24;85.53
18988;BME280;5494;51.796;10.952;2023-03-12T12:11:08;98265.72;;;4.24;86.92
18988;BME280;5494;51.796;10.952;2023-03-12T12:13:52;98256.09;;;4.29;84.53
18988;BME280;5494;51.796;10.952;2023-03-12T12:16:45;98266.69;;;4.21;85.06
18988;BME280;5494;51.796;10.952;2023-03-12T12:19:30;98266.28;;;4.32;84.48
18988;BME280;5494;51.796;10.952;2023-03-12T12:22:27;98261.59;;;4.20;84.27
18988;BME280;5494;51.796;10.952;2023-03-12T12:25:21;98250.28;;;4.47;85.40
18988;BME280;5494;51.796;10.952;2023-03-12T12:28:14;98261.00;;;4.13;85.03
18988;BME280;5494;51.796;10.952;2023-03-12T12:31:01;98234.09;;;3.99;87.58
18988;BME280;5494;51.796;10.952;2023-03-12T12:33:48;98240.38;;;4.15;87.26
18988;BME280;5494;51.796;10.952;2023-03-12T12:36:24;98231.63;;;4.42;86.95
18988;BME280;5494;51.796;10.952;2023-03-12T12:39:00;98229.34;;;4.34;87.04
18988;BME280;5494;51.796;10.952;2023-03-12T12:41:36;98231.66;;;4.41;87.50
18988;BME280;5494;51.796;10.952;2023-03-12T12:44:14;98219.09;;;4.33;87.02
18988;BME280;5494;51.796;10.952;2023-03-12T12:46:49;98221.44;;;4.39;89.17
18988;BME280;5494;51.796;10.952;2023-03-12T12:49:23;98211.63;;;4.49;87.64
18988;BME280;5494;51.796;10.952;2023-03-12T12:51:57;98224.38;;;4.73;88.14
18988;BME280;5494;51.796;10.952;2023-03-12T12:54:34;98207.53;;;4.65;87.27
18988;BME280;5494;51.796;10.952;2023-03-12T12:57:13;98204.13;;;4.64;88.60
18988;BME280;5494;51.796;10.952;2023-03-12T13:00:00;98208.44;;;4.86;88.15
18988;BME280;5494;51.796;10.952;2023-03-12T13:02:33;98192.31;;;5.02;87.69
18988;BME280;5494;51.796;10.952;2023-03-12T13:05:19;98188.00;;;5.03;86.60
18988;BME280;5494;51.796;10.952;2023-03-12T13:07:47;98183.75;;;5.02;87.20
18988;BME280;5494;51.796;10.952;2023-03-12T13:10:42;98180.53;;;5.17;87.95
18988;BME280;5494;51.796;10.952;2023-03-12T13:13:24;98178.06;;;5.14;87.42
18988;BME280;5494;51.796;10.952;2023-03-12T13:16:30;98189.41;;;5.10;87.06
18988;BME280;5494;51.796;10.952;2023-03-12T13:19:03;98181.22;;;5.00;88.99
18988;BME280;5494;51.796;10.952;2023-03-12T13:21:39;98162.59;;;4.73;89.67
18988;BME280;5494;51.796;10.952;2023-03-12T13:24:21;98168.47;;;4.55;91.62
18988;BME280;5494;51.796;10.952;2023-03-12T13:26:58;98159.13;;;4.53;94.31
18988;BME280;5494;51.796;10.952;2023-03-12T13:29:39;98158.91;;;4.59;96.98
18988;BME280;5494;51.796;10.952;2023-03-12T13:32:37;98146.06;;;4.57;97.61
18988;BME280;5494;51.796;10.952;2023-03-12T13:35:29;98134.25;;;4.31;96.53
18988;BME280;5494;51.796;10.952;2023-03-12T13:38:03;98125.94;;;4.25;98.19
18988;BME280;5494;51.796;10.952;2023-03-12T13:43:53;98124.03;;;4.72;96.43
18988;BME280;5494;51.796;10.952;2023-03-12T13:46:38;98114.63;;;4.91;95.59